createdAt,value
2022-11-20T00:00:46.733Z,2.83
2022-11-20T00:03:53.992Z,3.60
2022-11-20T00:06:58.903Z,2.90
2022-11-20T00:10:03.922Z,3.03
2022-11-20T00:13:08.866Z,3.20
2022-11-20T00:16:16.449Z,2.67
2022-11-20T00:19:21.219Z,3.28
2022-11-20T00:22:25.931Z,3.03
2022-11-20T00:25:30.591Z,3.60
2022-11-20T00:28:35.503Z,3.47
2022-11-20T00:31:40.229Z,3.28
2022-11-20T00:34:44.766Z,3.10
2022-11-20T00:37:49.148Z,2.92
2022-11-20T00:41:04.203Z,3.22
2022-11-20T00:44:08.518Z,3.85
2022-11-20T00:47:12.805Z,3.22
2022-11-20T00:50:17.517Z,3.30
2022-11-20T00:53:23.200Z,2.88
2022-11-20T00:56:28.127Z,3.03
2022-11-20T00:59:32.655Z,3.50
2022-11-20T01:02:37.300Z,3.17
2022-11-20T01:05:42.000Z,3.75
2022-11-20T01:08:48.500Z,3.30
2022-11-20T01:11:53.063Z,2.90
2022-11-20T01:14:57.793Z,3.63
2022-11-20T01:18:02.697Z,3.10
2022-11-20T01:21:14.775Z,3.10
2022-11-20T01:24:21.976Z,3.30
2022-11-20T01:27:26.582Z,3.85
2022-11-20T01:30:31.085Z,3.58
2022-11-20T01:33:35.312Z,3.45
2022-11-20T01:36:40.596Z,3.95
2022-11-20T01:39:45.061Z,3.15
2022-11-20T01:43:24.338Z,3.50
2022-11-20T01:46:29.430Z,3.20
2022-11-20T01:49:52.291Z,3.95
2022-11-20T01:53:06.301Z,3.58
2022-11-20T01:56:14.565Z,3.88
2022-11-20T01:59:21.122Z,3.80
2022-11-20T02:02:26.640Z,3.67
2022-11-20T02:06:01.311Z,3.88
2022-11-20T02:09:05.922Z,3.60
2022-11-20T02:12:30.821Z,3.95
2022-11-20T02:15:45.122Z,3.50
2022-11-20T02:19:02.688Z,3.58
2022-11-20T02:22:26.094Z,3.53
2022-11-20T02:25:33.223Z,2.90
2022-11-20T02:28:38.355Z,2.90
2022-11-20T02:31:44.532Z,3.95
2022-11-20T02:34:49.051Z,3.75
2022-11-20T02:38:00.177Z,3.97
2022-11-20T02:41:04.810Z,3.72
2022-11-20T02:44:09.875Z,3.08
2022-11-20T02:47:14.342Z,3.50
2022-11-20T02:50:19.054Z,3.42
2022-11-20T02:53:23.723Z,3.38
2022-11-20T02:56:28.558Z,4.38
2022-11-20T02:59:33.040Z,3.45
2022-11-20T03:02:37.465Z,3.58
2022-11-20T03:05:42.010Z,3.70
2022-11-20T03:08:46.419Z,3.72
2022-11-20T03:11:51.028Z,3.25
2022-11-20T03:14:56.030Z,3.92
2022-11-20T03:18:00.632Z,3.75
2022-11-20T03:21:05.595Z,3.65
2022-11-20T03:24:10.147Z,4.18
2022-11-20T03:27:14.937Z,3.90
2022-11-20T03:30:19.509Z,3.47
2022-11-20T03:33:24.140Z,3.83
2022-11-20T03:36:29.096Z,3.75
2022-11-20T03:39:33.315Z,3.50
2022-11-20T03:42:46.661Z,3.47
2022-11-20T03:45:51.349Z,3.50
2022-11-20T03:48:56.594Z,3.50
2022-11-20T03:52:01.124Z,3.90
2022-11-20T03:55:07.665Z,3.55
2022-11-20T03:58:12.492Z,3.83
2022-11-20T04:01:27.365Z,3.35
2022-11-20T04:04:32.003Z,4.00
2022-11-20T04:07:36.534Z,4.28
2022-11-20T04:10:41.238Z,3.83
2022-11-20T04:13:58.261Z,3.45
2022-11-20T04:17:02.660Z,3.55
2022-11-20T04:20:07.887Z,3.72
2022-11-20T04:23:12.329Z,3.88
2022-11-20T04:26:17.287Z,3.60
2022-11-20T04:29:21.704Z,3.55
2022-11-20T04:32:26.109Z,3.75
2022-11-20T04:35:30.444Z,4.22
2022-11-20T04:38:35.247Z,3.60
2022-11-20T04:41:40.195Z,3.42
2022-11-20T04:44:44.530Z,4.28
2022-11-20T04:47:48.975Z,4.35
2022-11-20T04:50:54.169Z,3.95
2022-11-20T04:53:58.754Z,3.75
2022-11-20T04:57:03.658Z,3.88
2022-11-20T05:00:09.482Z,3.95
2022-11-20T05:03:13.969Z,3.80
2022-11-20T05:06:21.871Z,3.92
2022-11-20T05:09:26.454Z,3.45
2022-11-20T05:12:31.076Z,3.85
2022-11-20T05:15:35.662Z,3.30
2022-11-20T05:18:41.324Z,3.90
2022-11-20T05:21:45.574Z,4.10
2022-11-20T05:24:50.176Z,3.80
2022-11-20T05:27:54.947Z,4.00
2022-11-20T05:31:14.528Z,4.65
2022-11-20T05:34:19.172Z,3.83
2022-11-20T05:37:23.639Z,4.45
2022-11-20T05:40:28.402Z,4.40
2022-11-20T05:43:35.793Z,3.80
2022-11-20T05:46:40.508Z,4.10
2022-11-20T05:49:45.112Z,3.90
2022-11-20T05:52:49.474Z,4.10
2022-11-20T05:56:19.733Z,4.07
2022-11-20T05:59:24.236Z,4.07
2022-11-20T06:02:28.896Z,4.20
2022-11-20T06:05:34.941Z,4.20
2022-11-20T06:08:39.663Z,4.20
2022-11-20T06:11:44.001Z,3.90
2022-11-20T06:14:48.388Z,3.88
2022-11-20T06:17:56.330Z,4.47
2022-11-20T06:21:16.347Z,4.18
2022-11-20T06:24:20.923Z,4.25
2022-11-20T06:27:25.340Z,4.60
2022-11-20T06:30:29.765Z,4.45
2022-11-20T06:33:34.897Z,3.97
2022-11-20T06:36:39.652Z,4.13
2022-11-20T06:39:44.172Z,4.03
2022-11-20T06:42:48.691Z,4.72
2022-11-20T06:45:55.064Z,4.72
2022-11-20T06:48:59.810Z,4.38
2022-11-20T06:52:04.527Z,4.85
2022-11-20T06:55:09.333Z,4.22
2022-11-20T06:58:15.098Z,4.15
2022-11-20T07:01:20.183Z,4.60
2022-11-20T07:04:24.917Z,4.63
2022-11-20T07:07:30.405Z,4.65
2022-11-20T07:10:35.281Z,4.35
2022-11-20T07:13:39.815Z,4.38
2022-11-20T07:16:44.345Z,3.90
2022-11-20T07:19:49.197Z,4.63
2022-11-20T07:22:58.748Z,4.65
2022-11-20T07:26:09.893Z,4.47
2022-11-20T07:29:14.297Z,4.90
2022-11-20T07:32:18.867Z,4.80
2022-11-20T07:35:25.146Z,5.10
2022-11-20T07:38:30.712Z,5.40
2022-11-20T07:41:35.564Z,5.22
2022-11-20T07:44:40.549Z,4.60
2022-11-20T07:47:45.127Z,5.18
2022-11-20T07:50:49.689Z,4.50
2022-11-20T07:53:54.622Z,4.32
2022-11-20T07:56:59.346Z,4.57
2022-11-20T08:00:11.180Z,4.82
2022-11-20T08:03:24.326Z,4.45
2022-11-20T08:06:29.624Z,4.80
2022-11-20T08:09:34.071Z,4.43
2022-11-20T08:13:08.192Z,4.70
2022-11-20T08:16:13.138Z,4.68
2022-11-20T08:19:20.047Z,4.68
2022-11-20T08:22:25.733Z,5.07
2022-11-20T08:25:30.957Z,4.82
2022-11-20T08:28:35.227Z,4.32
2022-11-20T08:31:39.858Z,4.90
2022-11-20T08:34:44.676Z,5.00
2022-11-20T08:37:50.462Z,4.10
2022-11-20T08:41:17.727Z,4.72
2022-11-20T08:44:22.191Z,4.85
2022-11-20T08:47:26.708Z,4.75
2022-11-20T08:50:33.289Z,4.95
2022-11-20T08:53:39.550Z,4.10
2022-11-20T08:56:44.145Z,4.65
2022-11-20T09:00:05.720Z,4.60
2022-11-20T09:03:11.292Z,4.40
2022-11-20T09:06:16.749Z,4.38
2022-11-20T09:09:22.106Z,4.53
2022-11-20T09:12:26.881Z,5.68
2022-11-20T09:15:31.348Z,5.50
2022-11-20T09:18:39.863Z,5.35
2022-11-20T09:21:44.498Z,5.45
2022-11-20T09:24:49.029Z,5.60
2022-11-20T09:28:00.336Z,5.38
2022-11-20T09:31:09.916Z,6.55
2022-11-20T09:34:14.377Z,5.75
2022-11-20T09:37:19.246Z,6.05
2022-11-20T09:40:30.412Z,6.15
2022-11-20T09:44:02.853Z,6.20
2022-11-20T09:47:39.567Z,6.45
2022-11-20T09:51:04.364Z,5.88
2022-11-20T09:54:21.446Z,5.60
2022-11-20T09:57:37.104Z,5.38
2022-11-20T10:00:42.031Z,5.50
2022-11-20T10:04:19.210Z,5.78
2022-11-20T10:07:48.099Z,5.65
2022-11-20T10:11:21.293Z,5.57
2022-11-20T10:15:07.394Z,5.55
2022-11-20T10:18:59.362Z,5.75
2022-11-20T10:22:32.203Z,5.03
2022-11-20T10:25:53.316Z,6.07
2022-11-20T10:29:18.203Z,6.38
2022-11-20T10:32:29.232Z,6.28
2022-11-20T10:35:42.365Z,5.50
2022-11-20T10:38:55.593Z,6.47
2022-11-20T10:42:01.653Z,5.80
2022-11-20T10:45:26.359Z,6.68
2022-11-20T10:48:33.128Z,6.18
2022-11-20T10:52:21.422Z,6.57
2022-11-20T10:55:39.496Z,6.00
2022-11-20T10:58:59.950Z,5.63
2022-11-20T11:02:32.114Z,6.70
2022-11-20T11:05:47.483Z,6.47
2022-11-20T11:08:57.659Z,6.90
2022-11-20T11:12:06.949Z,7.13
2022-11-20T11:15:40.813Z,6.60
2022-11-20T11:18:45.444Z,5.77
2022-11-20T11:21:57.527Z,5.93
2022-11-20T11:25:03.281Z,7.45
2022-11-20T11:28:22.808Z,6.50
2022-11-20T11:31:31.927Z,7.45
2022-11-20T11:34:36.684Z,7.22
2022-11-20T11:37:41.386Z,7.57
2022-11-20T11:40:47.651Z,9.07
2022-11-20T11:44:17.213Z,8.38
2022-11-20T11:47:37.915Z,10.75
2022-11-20T11:50:51.368Z,9.77
2022-11-20T11:53:57.485Z,9.05
2022-11-20T11:57:11.658Z,10.57
2022-11-20T12:00:22.652Z,11.73
2022-11-20T12:03:43.604Z,10.18
2022-11-20T12:07:13.209Z,10.35
2022-11-20T12:10:42.324Z,10.95
2022-11-20T12:14:14.698Z,10.05
2022-11-20T12:17:20.039Z,11.02
2022-11-20T12:20:43.092Z,11.45
2022-11-20T12:24:38.432Z,9.13
2022-11-20T12:28:04.930Z,9.43
2022-11-20T12:31:39.528Z,13.10
2022-11-20T12:34:53.104Z,10.52
2022-11-20T12:38:16.726Z,10.75
2022-11-20T12:41:55.387Z,9.68
2022-11-20T12:45:32.976Z,10.43
2022-11-20T12:49:04.789Z,10.23
2022-11-20T12:52:26.601Z,10.60
2022-11-20T12:56:12.486Z,9.88
2022-11-20T12:59:31.759Z,9.77
2022-11-20T13:03:10.291Z,10.43
2022-11-20T13:06:19.363Z,9.60
2022-11-20T13:09:25.447Z,9.65
2022-11-20T13:12:45.440Z,10.18
2022-11-20T13:16:02.130Z,8.43
2022-11-20T13:19:13.190Z,8.30
2022-11-20T13:22:30.579Z,8.30
2022-11-20T13:25:41.403Z,9.18
2022-11-20T13:28:49.152Z,7.57
2022-11-20T13:32:21.596Z,8.68
2022-11-20T13:35:44.397Z,7.75
2022-11-20T13:38:52.586Z,8.57
2022-11-20T13:42:01.946Z,11.27
2022-11-20T13:45:24.386Z,10.80
2022-11-20T13:48:42.934Z,12.07
2022-11-20T13:51:59.617Z,12.88
2022-11-20T13:55:21.013Z,13.30
2022-11-20T13:58:44.127Z,15.50
2022-11-20T14:01:50.236Z,14.48
2022-11-20T14:05:01.820Z,12.82
2022-11-20T14:08:18.675Z,14.88
2022-11-20T14:11:26.710Z,14.38
2022-11-20T14:14:34.419Z,12.38
2022-11-20T14:17:39.254Z,13.32
2022-11-20T14:20:44.479Z,14.63
2022-11-20T14:23:48.930Z,14.70
2022-11-20T14:26:53.732Z,12.65
2022-11-20T14:30:03.194Z,16.48
2022-11-20T14:33:08.607Z,13.90
2022-11-20T14:36:21.608Z,13.98
2022-11-20T14:39:38.394Z,12.48
2022-11-20T14:42:45.399Z,14.35
2022-11-20T14:46:10.005Z,14.50
2022-11-20T14:49:14.852Z,12.85
2022-11-20T14:52:23.633Z,11.50
2022-11-20T14:55:28.519Z,11.02
2022-11-20T14:58:34.698Z,15.75
2022-11-20T15:01:39.161Z,15.25
2022-11-20T15:04:57.467Z,18.50
2022-11-20T15:08:11.533Z,18.00
2022-11-20T15:11:25.281Z,17.55
2022-11-20T15:14:56.345Z,16.73
2022-11-20T15:18:04.496Z,14.07
2022-11-20T15:21:27.608Z,16.85
2022-11-20T15:24:33.598Z,18.70
2022-11-20T15:27:38.551Z,14.50
2022-11-20T15:30:43.254Z,14.95
2022-11-20T15:33:49.037Z,14.65
2022-11-20T15:36:54.157Z,13.43
2022-11-20T15:39:58.961Z,14.20
2022-11-20T15:43:08.221Z,14.40
2022-11-20T15:46:18.975Z,13.90
2022-11-20T15:49:24.802Z,15.93
2022-11-20T15:52:40.194Z,15.18
2022-11-20T15:55:46.710Z,14.38
2022-11-20T15:58:51.475Z,14.88
2022-11-20T16:01:56.061Z,13.85
2022-11-20T16:05:00.474Z,14.02
2022-11-20T16:08:11.095Z,11.77
2022-11-20T16:11:18.903Z,14.07
2022-11-20T16:14:42.033Z,12.55
2022-11-20T16:17:46.625Z,14.38
2022-11-20T16:20:54.055Z,14.32
2022-11-20T16:24:00.137Z,16.98
2022-11-20T16:27:05.118Z,16.80
2022-11-20T16:30:10.998Z,16.83
2022-11-20T16:33:20.678Z,16.50
2022-11-20T16:36:28.549Z,17.33
2022-11-20T16:39:33.562Z,15.38
2022-11-20T16:42:38.752Z,15.90
2022-11-20T16:45:46.392Z,17.67
2022-11-20T16:49:14.044Z,17.17
2022-11-20T16:52:18.670Z,18.55
2022-11-20T16:55:24.453Z,19.02
2022-11-20T16:58:30.154Z,15.15
2022-11-20T17:01:40.104Z,16.38
2022-11-20T17:04:44.833Z,16.70
2022-11-20T17:07:52.233Z,13.88
2022-11-20T17:11:21.270Z,16.17
2022-11-20T17:14:29.930Z,14.00
2022-11-20T17:17:35.751Z,15.10
2022-11-20T17:20:40.551Z,16.83
2022-11-20T17:23:47.112Z,20.48
2022-11-20T17:26:51.763Z,20.52
2022-11-20T17:29:57.684Z,21.17
2022-11-20T17:33:02.402Z,18.80
2022-11-20T17:36:10.034Z,17.92
2022-11-20T17:39:16.604Z,17.67
2022-11-20T17:42:27.329Z,17.27
2022-11-20T17:45:31.952Z,17.88
2022-11-20T17:48:38.042Z,19.27
2022-11-20T17:51:42.573Z,16.17
2022-11-20T17:54:47.499Z,14.70
2022-11-20T17:57:57.016Z,15.63
2022-11-20T18:01:07.119Z,15.80
2022-11-20T18:04:12.637Z,12.85
2022-11-20T18:07:17.527Z,11.93
2022-11-20T18:10:22.391Z,10.07
2022-11-20T18:13:47.977Z,10.10
2022-11-20T18:16:56.370Z,9.55
2022-11-20T18:20:27.803Z,8.40
2022-11-20T18:26:30.114Z,12.25
2022-11-20T18:29:34.830Z,14.88
2022-11-20T18:32:40.103Z,15.77
2022-11-20T18:35:44.877Z,14.68
2022-11-20T18:38:51.689Z,14.20
2022-11-20T18:42:14.800Z,13.88
2022-11-20T18:45:19.334Z,12.43
2022-11-20T18:48:23.690Z,11.75
2022-11-20T18:51:28.055Z,12.00
2022-11-20T18:54:34.677Z,10.98
2022-11-20T18:57:39.358Z,9.20
2022-11-20T19:00:44.674Z,8.80
2022-11-20T19:03:49.032Z,8.00
2022-11-20T19:06:56.248Z,7.93
2022-11-20T19:10:03.632Z,7.90
2022-11-20T19:13:08.931Z,11.95
2022-11-20T19:16:17.981Z,10.63
2022-11-20T19:19:22.720Z,12.55
2022-11-20T19:22:27.604Z,17.73
2022-11-20T19:25:37.687Z,12.60
2022-11-20T19:28:43.524Z,10.68
2022-11-20T19:31:48.484Z,8.52
2022-11-20T19:34:53.345Z,9.40
2022-11-20T19:38:00.220Z,9.80
2022-11-20T19:41:09.712Z,9.05
2022-11-20T19:44:17.020Z,9.55
2022-11-20T19:47:22.961Z,11.50
2022-11-20T19:50:27.994Z,9.35
2022-11-20T19:53:32.527Z,8.38
2022-11-20T19:56:37.265Z,7.93
2022-11-20T19:59:41.782Z,7.10
2022-11-20T20:02:46.381Z,7.63
2022-11-20T20:05:50.981Z,8.95
2022-11-20T20:09:06.091Z,9.15
2022-11-20T20:12:10.638Z,8.77
2022-11-20T20:15:15.319Z,7.05
2022-11-20T20:18:20.118Z,7.45
2022-11-20T20:21:25.110Z,9.30
2022-11-20T20:24:29.717Z,10.43
2022-11-20T20:27:34.083Z,9.48
2022-11-20T20:30:38.682Z,8.20
2022-11-20T20:33:44.653Z,8.85
2022-11-20T20:36:49.124Z,9.07
2022-11-20T20:39:53.769Z,7.72
2022-11-20T20:42:58.505Z,8.32
2022-11-20T20:46:02.735Z,8.40
2022-11-20T20:49:08.001Z,7.00
2022-11-20T20:52:12.761Z,10.63
2022-11-20T20:55:17.861Z,7.57
2022-11-20T20:58:22.991Z,7.40
2022-11-20T21:01:30.626Z,9.73
2022-11-20T21:04:35.162Z,10.18
2022-11-20T21:07:59.771Z,8.95
2022-11-20T21:11:12.296Z,8.57
2022-11-20T21:14:16.933Z,9.60
2022-11-20T21:17:21.601Z,9.05
2022-11-20T21:20:44.352Z,7.13
2022-11-20T21:23:49.005Z,8.40
2022-11-20T21:26:54.681Z,8.70
2022-11-20T21:29:59.143Z,7.78
2022-11-20T21:33:04.068Z,7.80
2022-11-20T21:36:11.160Z,9.65
2022-11-20T21:39:17.099Z,8.27
2022-11-20T21:42:21.851Z,8.05
2022-11-20T21:45:26.255Z,7.60
2022-11-20T21:48:36.031Z,6.35
2022-11-20T21:51:40.495Z,6.82
2022-11-20T21:54:45.431Z,6.68
2022-11-20T21:57:50.220Z,7.20
2022-11-20T22:00:54.715Z,6.68
2022-11-20T22:04:02.260Z,6.72
2022-11-20T22:07:06.846Z,7.72
2022-11-20T22:10:18.492Z,7.20
2022-11-20T22:13:43.985Z,7.53
2022-11-20T22:16:51.166Z,7.15
2022-11-20T22:19:55.628Z,6.80
2022-11-20T22:23:00.187Z,6.20
2022-11-20T22:26:11.863Z,6.80
2022-11-20T22:29:20.878Z,7.18
2022-11-20T22:32:25.586Z,7.40
2022-11-20T22:35:30.499Z,7.22
2022-11-20T22:38:39.341Z,7.10
2022-11-20T22:41:44.492Z,7.10
2022-11-20T22:44:49.059Z,8.20
2022-11-20T22:47:53.812Z,6.07
2022-11-20T22:51:10.641Z,6.72
2022-11-20T22:54:15.389Z,6.72
2022-11-20T22:57:20.044Z,5.63
2022-11-20T23:00:24.618Z,6.63
2022-11-20T23:03:28.831Z,6.43
2022-11-20T23:06:34.443Z,6.32
2022-11-20T23:09:39.211Z,6.03
2022-11-20T23:12:44.011Z,6.18
2022-11-20T23:15:48.640Z,6.32
2022-11-20T23:19:03.699Z,6.05
2022-11-20T23:22:08.472Z,6.00
2022-11-20T23:25:13.244Z,6.88
2022-11-20T23:28:17.842Z,5.97
2022-11-20T23:31:22.637Z,6.38
2022-11-20T23:34:27.300Z,5.53
2022-11-20T23:37:32.165Z,6.18
2022-11-20T23:40:41.170Z,7.30
2022-11-20T23:43:46.210Z,6.78
2022-11-20T23:46:50.897Z,6.38
2022-11-20T23:49:56.676Z,6.25
2022-11-20T23:53:01.698Z,5.95
2022-11-20T23:56:06.267Z,6.60
2022-11-20T23:59:11.338Z,7.45
